sensor_id;sensor_type;location;lat;lon;timestamp;pressure;altitude;pressure_sealevel;temperature;humidity
50166;BME280;36071;48.140;11.516;2023-03-26T00:00:52;95090.0;;;8.0;61.0
50166;BME280;36071;48.140;11.516;2023-03-26T00:05:59;95090.0;;;8.0;60.9
50166;BME280;36071;48.140;11.516;2023-03-26T00:10:51;95090.0;;;8.0;61.2
50166;BME280;36071;48.140;11.516;2023-03-26T00:15:52;95090.0;;;8.0;61.0
50166;BME280;36071;48.140;11.516;2023-03-26T00:20:51;95080.0;;;7.9;61.3
50166;BME280;36071;48.140;11.516;2023-03-26T00:25:51;95080.0;;;8.0;61.2
50166;BME280;36071;48.140;11.516;2023-03-26T00:30:56;95080.0;;;7.9;61.4
50166;BME280;36071;48.140;11.516;2023-03-26T00:35:52;95080.0;;;7.9;61.6
50166;BME280;36071;48.140;11.516;2023-03-26T00:40:52;95070.0;;;7.9;61.6
50166;BME280;36071;48.140;11.516;2023-03-26T00:45:53;95080.0;;;7.8;61.9
50166;BME280;36071;48.140;11.516;2023-03-26T00:50:52;95070.0;;;7.8;61.9
50166;BME280;36071;48.140;11.516;2023-03-26T00:55:51;95050.0;;;7.7;62.1
50166;BME280;36071;48.140;11.516;2023-03-26T01:00:55;95060.0;;;7.7;62.2
50166;BME280;36071;48.140;11.516;2023-03-26T01:05:54;95070.0;;;7.7;62.2
50166;BME280;36071;48.140;11.516;2023-03-26T01:10:52;95060.0;;;7.7;62.5
50166;BME280;36071;48.140;11.516;2023-03-26T01:15:51;95060.0;;;7.6;62.5
50166;BME280;36071;48.140;11.516;2023-03-26T01:20:53;95070.0;;;7.7;62.6
50166;BME280;36071;48.140;11.516;2023-03-26T01:25:53;95070.0;;;7.6;62.8
50166;BME280;36071;48.140;11.516;2023-03-26T01:30:53;95060.0;;;7.6;63.2
50166;BME280;36071;48.140;11.516;2023-03-26T01:35:53;95050.0;;;7.6;63.1
50166;BME280;36071;48.140;11.516;2023-03-26T01:40:54;95060.0;;;7.6;63.5
50166;BME280;36071;48.140;11.516;2023-03-26T01:45:52;95040.0;;;7.5;63.7
50166;BME280;36071;48.140;11.516;2023-03-26T01:50:51;95040.0;;;7.5;63.6
50166;BME280;36071;48.140;11.516;2023-03-26T01:55:53;95040.0;;;7.5;63.8
50166;BME280;36071;48.140;11.516;2023-03-26T02:00:52;95030.0;;;7.4;64.5
50166;BME280;36071;48.140;11.516;2023-03-26T02:05:52;95030.0;;;7.4;64.2
50166;BME280;36071;48.140;11.516;2023-03-26T02:10:53;95010.0;;;7.4;64.4
50166;BME280;36071;48.140;11.516;2023-03-26T02:20:51;95010.0;;;7.3;64.7
50166;BME280;36071;48.140;11.516;2023-03-26T02:25:51;95000.0;;;7.4;64.4
50166;BME280;36071;48.140;11.516;2023-03-26T02:30:52;95000.0;;;7.4;64.3
50166;BME280;36071;48.140;11.516;2023-03-26T02:35:52;95000.0;;;7.3;64.7
50166;BME280;36071;48.140;11.516;2023-03-26T02:40:52;95000.0;;;7.3;64.9
50166;BME280;36071;48.140;11.516;2023-03-26T02:45:52;94990.0;;;7.3;64.7
50166;BME280;36071;48.140;11.516;2023-03-26T02:50:52;94970.0;;;7.3;65.1
50166;BME280;36071;48.140;11.516;2023-03-26T02:55:51;94980.0;;;7.3;65.1
50166;BME280;36071;48.140;11.516;2023-03-26T03:00:52;94970.0;;;7.4;64.9
50166;BME280;36071;48.140;11.516;2023-03-26T03:05:52;94970.0;;;7.3;65.2
50166;BME280;36071;48.140;11.516;2023-03-26T03:10:55;94950.0;;;7.4;65.1
50166;BME280;36071;48.140;11.516;2023-03-26T03:15:52;94940.0;;;7.4;65.1
50166;BME280;36071;48.140;11.516;2023-03-26T03:20:52;94930.0;;;7.4;65.3
50166;BME280;36071;48.140;11.516;2023-03-26T03:25:51;94880.0;;;7.1;65.2
50166;BME280;36071;48.140;11.516;2023-03-26T03:30:51;94920.0;;;7.4;65.4
50166;BME280;36071;48.140;11.516;2023-03-26T03:35:52;94910.0;;;7.4;65.3
50166;BME280;36071;48.140;11.516;2023-03-26T03:40:51;94920.0;;;7.4;65.4
50166;BME280;36071;48.140;11.516;2023-03-26T03:45:51;94920.0;;;7.4;65.2
50166;BME280;36071;48.140;11.516;2023-03-26T03:50:52;94910.0;;;7.5;65.3
50166;BME280;36071;48.140;11.516;2023-03-26T03:55:52;94910.0;;;7.6;64.9
50166;BME280;36071;48.140;11.516;2023-03-26T04:00:52;94900.0;;;7.6;64.7
50166;BME280;36071;48.140;11.516;2023-03-26T04:05:52;94900.0;;;7.7;64.6
50166;BME280;36071;48.140;11.516;2023-03-26T04:10:51;94890.0;;;7.6;64.9
50166;BME280;36071;48.140;11.516;2023-03-26T04:15:52;94880.0;;;7.5;65.2
50166;BME280;36071;48.140;11.516;2023-03-26T04:20:52;94880.0;;;7.6;65.2
50166;BME280;36071;48.140;11.516;2023-03-26T04:25:51;94880.0;;;7.5;65.2
50166;BME280;36071;48.140;11.516;2023-03-26T04:30:52;94870.0;;;7.6;65.2
50166;BME280;36071;48.140;11.516;2023-03-26T04:35:52;94870.0;;;7.6;65.1
50166;BME280;36071;48.140;11.516;2023-03-26T04:40:51;94860.0;;;7.6;65.1
50166;BME280;36071;48.140;11.516;2023-03-26T04:45:52;94850.0;;;7.6;65.1
50166;BME280;36071;48.140;11.516;2023-03-26T04:50:52;94840.0;;;7.6;65.2
50166;BME280;36071;48.140;11.516;2023-03-26T05:00:51;94830.0;;;7.6;65.2
50166;BME280;36071;48.140;11.516;2023-03-26T05:05:52;94830.0;;;7.6;65.0
50166;BME280;36071;48.140;11.516;2023-03-26T05:10:51;94820.0;;;7.7;64.8
50166;BME280;36071;48.140;11.516;2023-03-26T05:15:52;94810.0;;;7.7;64.7
50166;BME280;36071;48.140;11.516;2023-03-26T05:20:52;94810.0;;;7.7;64.8
50166;BME280;36071;48.140;11.516;2023-03-26T05:25:52;94810.0;;;7.7;64.5
50166;BME280;36071;48.140;11.516;2023-03-26T05:30:52;94800.0;;;7.8;64.5
50166;BME280;36071;48.140;11.516;2023-03-26T05:35:57;94810.0;;;7.8;64.1
50166;BME280;36071;48.140;11.516;2023-03-26T05:40:55;94800.0;;;7.8;64.0
50166;BME280;36071;48.140;11.516;2023-03-26T05:45:51;94790.0;;;7.8;64.3
50166;BME280;36071;48.140;11.516;2023-03-26T05:50:52;94780.0;;;7.8;64.1
50166;BME280;36071;48.140;11.516;2023-03-26T05:55:52;94770.0;;;7.8;64.0
50166;BME280;36071;48.140;11.516;2023-03-26T06:00:55;94760.0;;;7.8;64.3
50166;BME280;36071;48.140;11.516;2023-03-26T06:05:52;94760.0;;;7.7;64.6
50166;BME280;36071;48.140;11.516;2023-03-26T06:10:56;94740.0;;;7.7;65.0
50166;BME280;36071;48.140;11.516;2023-03-26T06:15:52;94740.0;;;7.8;64.9
50166;BME280;36071;48.140;11.516;2023-03-26T06:20:51;94750.0;;;7.8;65.1
50166;BME280;36071;48.140;11.516;2023-03-26T06:25:52;94750.0;;;7.9;64.1
50166;BME280;36071;48.140;11.516;2023-03-26T06:30:52;94740.0;;;7.9;64.1
50166;BME280;36071;48.140;11.516;2023-03-26T06:35:52;94740.0;;;7.9;63.7
50166;BME280;36071;48.140;11.516;2023-03-26T06:40:51;94720.0;;;8.0;63.2
50166;BME280;36071;48.140;11.516;2023-03-26T06:45:52;94730.0;;;8.1;63.2
50166;BME280;36071;48.140;11.516;2023-03-26T06:50:51;94730.0;;;8.1;62.1
50166;BME280;36071;48.140;11.516;2023-03-26T06:55:52;94740.0;;;8.2;62.4
50166;BME280;36071;48.140;11.516;2023-03-26T07:00:52;94730.0;;;8.2;61.1
50166;BME280;36071;48.140;11.516;2023-03-26T07:05:52;94730.0;;;8.2;61.6
50166;BME280;36071;48.140;11.516;2023-03-26T07:10:51;94720.0;;;8.2;63.2
50166;BME280;36071;48.140;11.516;2023-03-26T07:15:52;94710.0;;;8.1;65.0
50166;BME280;36071;48.140;11.516;2023-03-26T07:20:52;94710.0;;;7.9;67.1
50166;BME280;36071;48.140;11.516;2023-03-26T07:25:52;94700.0;;;8.0;68.7
50166;BME280;36071;48.140;11.516;2023-03-26T07:30:55;94680.0;;;7.8;70.4
50166;BME280;36071;48.140;11.516;2023-03-26T07:35:52;94660.0;;;7.9;71.7
50166;BME280;36071;48.140;11.516;2023-03-26T07:40:54;94640.0;;;7.8;71.8
50166;BME280;36071;48.140;11.516;2023-03-26T07:45:52;94630.0;;;7.8;73.6
50166;BME280;36071;48.140;11.516;2023-03-26T07:50:52;94620.0;;;7.8;74.9
50166;BME280;36071;48.140;11.516;2023-03-26T07:55:52;94610.0;;;7.9;72.3
50166;BME280;36071;48.140;11.516;2023-03-26T08:00:53;94600.0;;;7.9;73.1
50166;BME280;36071;48.140;11.516;2023-03-26T08:05:54;94580.0;;;7.9;73.6
50166;BME280;36071;48.140;11.516;2023-03-26T08:10:57;94580.0;;;8.0;73.5
50166;BME280;36071;48.140;11.516;2023-03-26T08:15:52;94560.0;;;8.1;72.3
50166;BME280;36071;48.140;11.516;2023-03-26T08:20:53;94570.0;;;8.1;72.6
50166;BME280;36071;48.140;11.516;2023-03-26T08:25:53;94560.0;;;8.2;68.7
50166;BME280;36071;48.140;11.516;2023-03-26T08:30:52;94550.0;;;8.3;70.7
50166;BME280;36071;48.140;11.516;2023-03-26T08:35:51;94540.0;;;8.4;69.5
50166;BME280;36071;48.140;11.516;2023-03-26T08:41:16;94540.0;;;8.4;68.6
50166;BME280;36071;48.140;11.516;2023-03-26T08:45:56;94550.0;;;8.5;68.2
50166;BME280;36071;48.140;11.516;2023-03-26T08:51:03;94550.0;;;8.5;66.7
50166;BME280;36071;48.140;11.516;2023-03-26T08:55:52;94550.0;;;8.6;68.4
50166;BME280;36071;48.140;11.516;2023-03-26T09:00:56;94550.0;;;8.4;66.2
50166;BME280;36071;48.140;11.516;2023-03-26T09:06:01;94540.0;;;8.3;66.3
50166;BME280;36071;48.140;11.516;2023-03-26T09:10:57;94530.0;;;8.2;66.7
50166;BME280;36071;48.140;11.516;2023-03-26T09:15:59;94520.0;;;8.3;67.6
50166;BME280;36071;48.140;11.516;2023-03-26T09:21:13;94520.0;;;8.3;67.9
50166;BME280;36071;48.140;11.516;2023-03-26T09:25:54;94500.0;;;8.2;69.6
50166;BME280;36071;48.140;11.516;2023-03-26T09:31:04;94490.0;;;8.3;70.3
50166;BME280;36071;48.140;11.516;2023-03-26T09:35:53;94500.0;;;8.3;70.8
50166;BME280;36071;48.140;11.516;2023-03-26T09:40:52;94510.0;;;8.3;71.0
50166;BME280;36071;48.140;11.516;2023-03-26T09:45:55;94520.0;;;8.2;72.4
50166;BME280;36071;48.140;11.516;2023-03-26T09:50:55;94500.0;;;8.3;73.7
50166;BME280;36071;48.140;11.516;2023-03-26T09:55:55;94500.0;;;8.3;74.5
50166;BME280;36071;48.140;11.516;2023-03-26T10:00:52;94500.0;;;8.4;76.6
50166;BME280;36071;48.140;11.516;2023-03-26T10:05:57;94490.0;;;8.4;76.1
50166;BME280;36071;48.140;11.516;2023-03-26T10:10:52;94470.0;;;8.2;76.9
50166;BME280;36071;48.140;11.516;2023-03-26T10:15:56;94450.0;;;8.4;76.7
50166;BME280;36071;48.140;11.516;2023-03-26T10:20:53;94460.0;;;8.3;76.5
50166;BME280;36071;48.140;11.516;2023-03-26T10:25:59;94480.0;;;8.4;75.8
50166;BME280;36071;48.140;11.516;2023-03-26T10:30:54;94460.0;;;8.4;75.7
50166;BME280;36071;48.140;11.516;2023-03-26T10:35:55;94490.0;;;8.3;76.0
50166;BME280;36071;48.140;11.516;2023-03-26T10:40:54;94480.0;;;8.4;76.6
50166;BME280;36071;48.140;11.516;2023-03-26T10:45:55;94500.0;;;8.3;77.9
50166;BME280;36071;48.140;11.516;2023-03-26T10:50:53;94520.0;;;8.2;79.6
50166;BME280;36071;48.140;11.516;2023-03-26T10:55:52;94480.0;;;8.0;83.0
50166;BME280;36071;48.140;11.516;2023-03-26T11:00:54;94490.0;;;8.0;83.9
50166;BME280;36071;48.140;11.516;2023-03-26T11:05:54;94470.0;;;7.9;82.8
50166;BME280;36071;48.140;11.516;2023-03-26T11:10:53;94460.0;;;8.0;84.6
50166;BME280;36071;48.140;11.516;2023-03-26T11:15:53;94450.0;;;8.1;82.0
50166;BME280;36071;48.140;11.516;2023-03-26T11:20:52;94450.0;;;8.1;83.9
50166;BME280;36071;48.140;11.516;2023-03-26T11:25:58;94460.0;;;8.2;86.9
50166;BME280;36071;48.140;11.516;2023-03-26T11:30:52;94440.0;;;8.2;82.1
50166;BME280;36071;48.140;11.516;2023-03-26T11:35:53;94460.0;;;8.2;81.9
50166;BME280;36071;48.140;11.516;2023-03-26T11:40:52;94450.0;;;8.1;82.5
50166;BME280;36071;48.140;11.516;2023-03-26T11:45:52;94450.0;;;7.9;82.7
50166;BME280;36071;48.140;11.516;2023-03-26T11:50:52;94450.0;;;7.8;84.9
50166;BME280;36071;48.140;11.516;2023-03-26T11:55:53;94440.0;;;7.8;84.9
50166;BME280;36071;48.140;11.516;2023-03-26T12:00:52;94440.0;;;7.9;85.0
50166;BME280;36071;48.140;11.516;2023-03-26T12:05:56;94400.0;;;7.9;85.0
50166;BME280;36071;48.140;11.516;2023-03-26T12:10:57;94410.0;;;8.1;82.9
50166;BME280;36071;48.140;11.516;2023-03-26T12:15:55;94370.0;;;8.4;79.6
50166;BME280;36071;48.140;11.516;2023-03-26T12:21:01;94410.0;;;8.9;76.9
50166;BME280;36071;48.140;11.516;2023-03-26T12:25:59;94410.0;;;8.9;76.1
50166;BME280;36071;48.140;11.516;2023-03-26T12:30:57;94370.0;;;8.6;76.9
50166;BME280;36071;48.140;11.516;2023-03-26T12:35:52;94400.0;;;8.8;78.8
50166;BME280;36071;48.140;11.516;2023-03-26T12:41:02;94390.0;;;8.9;78.6
50166;BME280;36071;48.140;11.516;2023-03-26T12:45:53;94390.0;;;8.8;77.6
50166;BME280;36071;48.140;11.516;2023-03-26T12:50:56;94400.0;;;8.9;77.9
50166;BME280;36071;48.140;11.516;2023-03-26T12:55:54;94400.0;;;9.0;76.9
50166;BME280;36071;48.140;11.516;2023-03-26T13:00:52;94410.0;;;9.0;75.4
50166;BME280;36071;48.140;11.516;2023-03-26T13:05:56;94380.0;;;9.0;74.7
50166;BME280;36071;48.140;11.516;2023-03-26T13:10:53;94390.0;;;9.0;75.1
50166;BME280;36071;48.140;11.516;2023-03-26T13:15:52;94380.0;;;9.1;74.4
50166;BME280;36071;48.140;11.516;2023-03-26T13:20:53;94370.0;;;9.1;74.3
50166;BME280;36071;48.140;11.516;2023-03-26T13:25:53;94380.0;;;9.1;73.9
50166;BME280;36071;48.140;11.516;2023-03-26T13:30:56;94370.0;;;9.1;73.3
50166;BME280;36071;48.140;11.516;2023-03-26T13:35:54;94370.0;;;9.1;73.7
50166;BME280;36071;48.140;11.516;2023-03-26T13:40:55;94380.0;;;9.1;74.0
50166;BME280;36071;48.140;11.516;2023-03-26T13:45:53;94360.0;;;9.1;73.9
50166;BME280;36071;48.140;11.516;2023-03-26T13:50:55;94360.0;;;9.2;73.5
50166;BME280;36071;48.140;11.516;2023-03-26T13:55:52;94350.0;;;9.2;73.6
50166;BME280;36071;48.140;11.516;2023-03-26T14:00:53;94330.0;;;9.2;72.3
50166;BME280;36071;48.140;11.516;2023-03-26T14:05:52;94320.0;;;9.3;72.3
50166;BME280;36071;48.140;11.516;2023-03-26T14:10:52;94320.0;;;9.3;70.8
50166;BME280;36071;48.140;11.516;2023-03-26T14:15:52;94330.0;;;9.2;70.0
50166;BME280;36071;48.140;11.516;2023-03-26T14:20:57;94330.0;;;9.1;68.7
50166;BME280;36071;48.140;11.516;2023-03-26T14:25:54;94320.0;;;8.9;66.5
50166;BME280;36071;48.140;11.516;2023-03-26T14:30:53;94310.0;;;8.8;65.8
50166;BME280;36071;48.140;11.516;2023-03-26T14:35:54;94300.0;;;8.8;64.7
50166;BME280;36071;48.140;11.516;2023-03-26T14:40:55;94290.0;;;8.8;65.1
50166;BME280;36071;48.140;11.516;2023-03-26T14:46:09;94290.0;;;8.8;64.5
50166;BME280;36071;48.140;11.516;2023-03-26T14:50:53;94270.0;;;8.8;64.8
50166;BME280;36071;48.140;11.516;2023-03-26T14:56:09;94290.0;;;8.8;65.0
50166;BME280;36071;48.140;11.516;2023-03-26T15:10:56;94270.0;;;8.9;65.7
50166;BME280;36071;48.140;11.516;2023-03-26T15:16:06;94270.0;;;8.8;65.9
50166;BME280;36071;48.140;11.516;2023-03-26T15:26:03;94260.0;;;9.0;67.0
50166;BME280;36071;48.140;11.516;2023-03-26T15:31:13;94250.0;;;9.0;68.0
50166;BME280;36071;48.140;11.516;2023-03-26T15:35:57;94250.0;;;8.9;69.4
50166;BME280;36071;48.140;11.516;2023-03-26T15:40:55;94240.0;;;8.9;70.1
50166;BME280;36071;48.140;11.516;2023-03-26T15:45:52;94260.0;;;9.0;70.8
50166;BME280;36071;48.140;11.516;2023-03-26T15:50:52;94280.0;;;9.0;68.2
50166;BME280;36071;48.140;11.516;2023-03-26T15:55:57;94280.0;;;8.9;60.8
50166;BME280;36071;48.140;11.516;2023-03-26T16:00:53;94260.0;;;8.7;58.2
50166;BME280;36071;48.140;11.516;2023-03-26T16:05:56;94240.0;;;8.6;57.8
50166;BME280;36071;48.140;11.516;2023-03-26T16:10:53;94270.0;;;8.6;58.2
50166;BME280;36071;48.140;11.516;2023-03-26T16:15:52;94260.0;;;8.4;59.7
50166;BME280;36071;48.140;11.516;2023-03-26T16:20:52;94260.0;;;8.2;61.0
50166;BME280;36071;48.140;11.516;2023-03-26T16:25:52;94230.0;;;8.2;61.7
50166;BME280;36071;48.140;11.516;2023-03-26T16:35:59;94240.0;;;8.3;62.3
50166;BME280;36071;48.140;11.516;2023-03-26T16:40:55;94220.0;;;8.3;62.6
50166;BME280;36071;48.140;11.516;2023-03-26T16:45:53;94200.0;;;8.3;63.1
50166;BME280;36071;48.140;11.516;2023-03-26T16:50:53;94210.0;;;8.2;63.7
50166;BME280;36071;48.140;11.516;2023-03-26T16:55:52;94220.0;;;8.3;64.5
50166;BME280;36071;48.140;11.516;2023-03-26T17:00:53;94210.0;;;8.3;64.6
50166;BME280;36071;48.140;11.516;2023-03-26T17:06:02;94220.0;;;8.3;64.7
50166;BME280;36071;48.140;11.516;2023-03-26T17:10:54;94210.0;;;8.3;64.3
50166;BME280;36071;48.140;11.516;2023-03-26T17:15:54;94220.0;;;8.3;64.2
50166;BME280;36071;48.140;11.516;2023-03-26T17:20:54;94210.0;;;8.3;64.4
50166;BME280;36071;48.140;11.516;2023-03-26T17:25:53;94210.0;;;8.3;64.0
50166;BME280;36071;48.140;11.516;2023-03-26T17:30:54;94230.0;;;8.2;63.6
50166;BME280;36071;48.140;11.516;2023-03-26T17:36:12;94230.0;;;8.2;63.5
50166;BME280;36071;48.140;11.516;2023-03-26T17:40:52;94250.0;;;8.2;64.0
50166;BME280;36071;48.140;11.516;2023-03-26T17:45:52;94280.0;;;8.1;65.2
50166;BME280;36071;48.140;11.516;2023-03-26T17:50:52;94300.0;;;8.0;66.7
50166;BME280;36071;48.140;11.516;2023-03-26T17:55:52;94330.0;;;7.8;68.1
50166;BME280;36071;48.140;11.516;2023-03-26T18:00:54;94320.0;;;7.7;69.2
50166;BME280;36071;48.140;11.516;2023-03-26T18:05:52;94310.0;;;7.4;70.2
50166;BME280;36071;48.140;11.516;2023-03-26T18:11:00;94320.0;;;7.2;69.2
50166;BME280;36071;48.140;11.516;2023-03-26T18:15:54;94290.0;;;7.0;70.0
50166;BME280;36071;48.140;11.516;2023-03-26T18:20:52;94300.0;;;6.8;70.1
50166;BME280;36071;48.140;11.516;2023-03-26T18:25:54;94310.0;;;6.7;71.0
50166;BME280;36071;48.140;11.516;2023-03-26T18:30:52;94320.0;;;6.6;70.8
50166;BME280;36071;48.140;11.516;2023-03-26T18:35:53;94330.0;;;6.6;70.5
50166;BME280;36071;48.140;11.516;2023-03-26T18:40:52;94320.0;;;6.5;70.0
50166;BME280;36071;48.140;11.516;2023-03-26T18:46:10;94310.0;;;6.4;70.0
50166;BME280;36071;48.140;11.516;2023-03-26T18:50:52;94320.0;;;6.5;69.9
50166;BME280;36071;48.140;11.516;2023-03-26T18:55:52;94330.0;;;6.4;70.3
50166;BME280;36071;48.140;11.516;2023-03-26T19:00:53;94320.0;;;6.4;70.5
50166;BME280;36071;48.140;11.516;2023-03-26T19:05:52;94310.0;;;6.3;71.0
50166;BME280;36071;48.140;11.516;2023-03-26T19:10:52;94320.0;;;6.2;71.8
50166;BME280;36071;48.140;11.516;2023-03-26T19:15:52;94310.0;;;6.3;71.5
50166;BME280;36071;48.140;11.516;2023-03-26T19:20:53;94310.0;;;6.2;71.8
50166;BME280;36071;48.140;11.516;2023-03-26T19:25:52;94300.0;;;6.3;72.0
50166;BME280;36071;48.140;11.516;2023-03-26T19:30:52;94300.0;;;6.2;72.2
50166;BME280;36071;48.140;11.516;2023-03-26T19:35:52;94310.0;;;6.2;72.6
50166;BME280;36071;48.140;11.516;2023-03-26T19:40:52;94320.0;;;6.2;72.7
50166;BME280;36071;48.140;11.516;2023-03-26T19:45:52;94310.0;;;6.1;72.8
50166;BME280;36071;48.140;11.516;2023-03-26T19:50:53;94250.0;;;5.9;72.7
50166;BME280;36071;48.140;11.516;2023-03-26T19:55:52;94300.0;;;6.2;72.6
50166;BME280;36071;48.140;11.516;2023-03-26T20:00:52;94290.0;;;6.1;72.5
50166;BME280;36071;48.140;11.516;2023-03-26T20:05:51;94310.0;;;6.2;72.6
50166;BME280;36071;48.140;11.516;2023-03-26T20:10:53;94310.0;;;6.2;72.3
50166;BME280;36071;48.140;11.516;2023-03-26T20:15:52;94300.0;;;6.1;72.4
50166;BME280;36071;48.140;11.516;2023-03-26T20:20:52;94320.0;;;6.2;71.8
50166;BME280;36071;48.140;11.516;2023-03-26T20:25:52;94310.0;;;6.2;71.5
50166;BME280;36071;48.140;11.516;2023-03-26T20:30:52;94290.0;;;6.1;70.5
50166;BME280;36071;48.140;11.516;2023-03-26T20:35:52;94300.0;;;6.1;70.0
50166;BME280;36071;48.140;11.516;2023-03-26T20:40:52;94300.0;;;6.0;69.7
50166;BME280;36071;48.140;11.516;2023-03-26T20:45:52;94300.0;;;6.1;69.2
50166;BME280;36071;48.140;11.516;2023-03-26T20:50:52;94290.0;;;6.1;69.1
50166;BME280;36071;48.140;11.516;2023-03-26T20:55:52;94300.0;;;6.0;68.6
50166;BME280;36071;48.140;11.516;2023-03-26T21:00:51;94310.0;;;6.1;68.3
50166;BME280;36071;48.140;11.516;2023-03-26T21:05:52;94290.0;;;6.0;68.5
50166;BME280;36071;48.140;11.516;2023-03-26T21:10:52;94300.0;;;6.0;68.2
50166;BME280;36071;48.140;11.516;2023-03-26T21:15:52;94310.0;;;6.1;68.2
50166;BME280;36071;48.140;11.516;2023-03-26T21:20:53;94310.0;;;6.1;68.0
50166;BME280;36071;48.140;11.516;2023-03-26T21:25:52;94310.0;;;6.0;68.1
50166;BME280;36071;48.140;11.516;2023-03-26T21:30:52;94300.0;;;6.0;68.1
50166;BME280;36071;48.140;11.516;2023-03-26T21:35:52;94310.0;;;5.9;68.1
50166;BME280;36071;48.140;11.516;2023-03-26T21:40:52;94320.0;;;5.9;68.2
50166;BME280;36071;48.140;11.516;2023-03-26T21:45:52;94320.0;;;6.0;68.4
50166;BME280;36071;48.140;11.516;2023-03-26T21:50:55;94310.0;;;6.0;68.3
50166;BME280;36071;48.140;11.516;2023-03-26T21:55:54;94310.0;;;5.9;68.4
50166;BME280;36071;48.140;11.516;2023-03-26T22:00:54;94300.0;;;6.0;68.6
50166;BME280;36071;48.140;11.516;2023-03-26T22:05:53;94310.0;;;6.0;68.5
50166;BME280;36071;48.140;11.516;2023-03-26T22:10:52;94300.0;;;6.0;68.5
50166;BME280;36071;48.140;11.516;2023-03-26T22:15:52;94290.0;;;5.9;68.7
50166;BME280;36071;48.140;11.516;2023-03-26T22:20:52;94290.0;;;5.9;69.1
50166;BME280;36071;48.140;11.516;2023-03-26T22:25:52;94300.0;;;6.0;68.9
50166;BME280;36071;48.140;11.516;2023-03-26T22:35:54;94310.0;;;5.9;69.1
50166;BME280;36071;48.140;11.516;2023-03-26T22:40:53;94310.0;;;5.9;69.6
50166;BME280;36071;48.140;11.516;2023-03-26T22:45:52;94310.0;;;5.8;70.4
50166;BME280;36071;48.140;11.516;2023-03-26T22:51:00;94310.0;;;5.7;70.5
50166;BME280;36071;48.140;11.516;2023-03-26T22:55:52;94310.0;;;5.7;70.2
50166;BME280;36071;48.140;11.516;2023-03-26T23:00:58;94300.0;;;5.7;70.7
50166;BME280;36071;48.140;11.516;2023-03-26T23:05:53;94290.0;;;5.7;70.4
50166;BME280;36071;48.140;11.516;2023-03-26T23:15:52;94290.0;;;5.6;70.9
50166;BME280;36071;48.140;11.516;2023-03-26T23:20:52;94300.0;;;5.6;70.9
50166;BME280;36071;48.140;11.516;2023-03-26T23:25:52;94290.0;;;5.7;70.8
50166;BME280;36071;48.140;11.516;2023-03-26T23:30:52;94290.0;;;5.6;70.9
50166;BME280;36071;48.140;11.516;2023-03-26T23:35:52;94280.0;;;5.6;70.9
50166;BME280;36071;48.140;11.516;2023-03-26T23:40:52;94280.0;;;5.6;70.6
50166;BME280;36071;48.140;11.516;2023-03-26T23:45:52;94270.0;;;5.5;71.2
50166;BME280;36071;48.140;11.516;2023-03-26T23:50:52;94260.0;;;5.6;70.9
50166;BME280;36071;48.140;11.516;2023-03-26T23:55:53;94270.0;;;5.5;70.9
